sensor_id;sensor_type;location;lat;lon;timestamp;temperature;humidity
22145;DHT22;11238;48.730;11.566;2023-04-01T00:00:24;8.80;99.90
22145;DHT22;11238;48.730;11.566;2023-04-01T00:02:50;8.80;99.90
22145;DHT22;11238;48.730;11.566;2023-04-01T00:05:16;8.80;99.90
22145;DHT22;11238;48.730;11.566;2023-04-01T00:07:43;8.70;99.90
22145;DHT22;11238;48.730;11.566;2023-04-01T00:10:11;8.70;99.90
22145;DHT22;11238;48.730;11.566;2023-04-01T00:12:38;8.70;99.90
22145;DHT22;11238;48.730;11.566;2023-04-01T00:15:06;8.70;99.90
22145;DHT22;11238;48.730;11.566;2023-04-01T00:17:32;8.80;99.90
22145;DHT22;11238;48.730;11.566;2023-04-01T00:19:59;8.80;99.90
22145;DHT22;11238;48.730;11.566;2023-04-01T00:22:25;8.80;99.90
22145;DHT22;11238;48.730;11.566;2023-04-01T00:24:52;8.70;99.90
22145;DHT22;11238;48.730;11.566;2023-04-01T00:27:18;8.70;99.90
22145;DHT22;11238;48.730;11.566;2023-04-01T00:29:46;8.60;99.90
22145;DHT22;11238;48.730;11.566;2023-04-01T00:32:12;8.60;99.90
22145;DHT22;11238;48.730;11.566;2023-04-01T00:34:37;8.60;99.90
22145;DHT22;11238;48.730;11.566;2023-04-01T00:37:08;8.60;99.90
22145;DHT22;11238;48.730;11.566;2023-04-01T00:39:37;8.60;99.90
22145;DHT22;11238;48.730;11.566;2023-04-01T00:42:04;8.60;99.90
22145;DHT22;11238;48.730;11.566;2023-04-01T00:44:33;8.70;99.90
22145;DHT22;11238;48.730;11.566;2023-04-01T00:47:00;8.70;99.90
22145;DHT22;11238;48.730;11.566;2023-04-01T00:49:50;8.70;99.90
22145;DHT22;11238;48.730;11.566;2023-04-01T00:52:22;8.70;99.90
22145;DHT22;11238;48.730;11.566;2023-04-01T00:54:52;8.60;99.90
22145;DHT22;11238;48.730;11.566;2023-04-01T00:57:40;8.60;99.90
22145;DHT22;11238;48.730;11.566;2023-04-01T01:00:10;8.60;99.90
22145;DHT22;11238;48.730;11.566;2023-04-01T01:02:38;8.60;99.90
22145;DHT22;11238;48.730;11.566;2023-04-01T01:05:06;8.60;99.90
22145;DHT22;11238;48.730;11.566;2023-04-01T01:10:23;8.50;99.90
22145;DHT22;11238;48.730;11.566;2023-04-01T01:16:06;8.40;99.90
22145;DHT22;11238;48.730;11.566;2023-04-01T01:18:46;8.40;99.90
22145;DHT22;11238;48.730;11.566;2023-04-01T01:27:04;8.40;99.90
22145;DHT22;11238;48.730;11.566;2023-04-01T01:32:57;8.20;99.90
22145;DHT22;11238;48.730;11.566;2023-04-01T01:35:48;8.20;99.90
22145;DHT22;11238;48.730;11.566;2023-04-01T01:38:21;8.20;99.90
22145;DHT22;11238;48.730;11.566;2023-04-01T01:40:55;8.20;99.90
22145;DHT22;11238;48.730;11.566;2023-04-01T01:43:26;8.10;99.90
22145;DHT22;11238;48.730;11.566;2023-04-01T01:45:58;8.10;99.90
22145;DHT22;11238;48.730;11.566;2023-04-01T01:48:26;8.10;99.90
22145;DHT22;11238;48.730;11.566;2023-04-01T01:50:53;8.10;99.90
22145;DHT22;11238;48.730;11.566;2023-04-01T01:53:20;8.10;99.90
22145;DHT22;11238;48.730;11.566;2023-04-01T01:55:47;8.10;99.90
22145;DHT22;11238;48.730;11.566;2023-04-01T01:58:32;8.10;99.90
22145;DHT22;11238;48.730;11.566;2023-04-01T02:01:03;8.10;99.90
22145;DHT22;11238;48.730;11.566;2023-04-01T02:03:34;8.10;99.90
22145;DHT22;11238;48.730;11.566;2023-04-01T02:06:03;8.10;99.90
22145;DHT22;11238;48.730;11.566;2023-04-01T02:11:08;8.10;99.90
22145;DHT22;11238;48.730;11.566;2023-04-01T02:13:49;8.10;99.90
22145;DHT22;11238;48.730;11.566;2023-04-01T02:19:15;8.10;99.90
22145;DHT22;11238;48.730;11.566;2023-04-01T02:22:13;8.10;99.90
22145;DHT22;11238;48.730;11.566;2023-04-01T02:24:41;8.10;99.90
22145;DHT22;11238;48.730;11.566;2023-04-01T02:27:09;8.20;99.90
22145;DHT22;11238;48.730;11.566;2023-04-01T02:29:36;8.10;99.90
22145;DHT22;11238;48.730;11.566;2023-04-01T02:32:06;8.20;99.90
22145;DHT22;11238;48.730;11.566;2023-04-01T02:34:33;8.20;99.90
22145;DHT22;11238;48.730;11.566;2023-04-01T02:36:59;8.20;99.90
22145;DHT22;11238;48.730;11.566;2023-04-01T02:39:25;8.10;99.90
22145;DHT22;11238;48.730;11.566;2023-04-01T02:41:52;8.10;99.90
22145;DHT22;11238;48.730;11.566;2023-04-01T02:44:18;8.10;99.90
22145;DHT22;11238;48.730;11.566;2023-04-01T02:46:44;8.10;99.90
22145;DHT22;11238;48.730;11.566;2023-04-01T02:49:10;8.00;99.90
22145;DHT22;11238;48.730;11.566;2023-04-01T02:51:36;8.10;99.90
22145;DHT22;11238;48.730;11.566;2023-04-01T02:54:02;8.10;99.90
22145;DHT22;11238;48.730;11.566;2023-04-01T02:56:28;8.00;99.90
22145;DHT22;11238;48.730;11.566;2023-04-01T02:58:54;8.00;99.90
22145;DHT22;11238;48.730;11.566;2023-04-01T03:01:21;8.00;99.90
22145;DHT22;11238;48.730;11.566;2023-04-01T03:03:47;8.00;99.90
22145;DHT22;11238;48.730;11.566;2023-04-01T03:06:14;8.10;99.90
22145;DHT22;11238;48.730;11.566;2023-04-01T03:08:41;8.10;99.90
22145;DHT22;11238;48.730;11.566;2023-04-01T03:11:08;8.10;99.90
22145;DHT22;11238;48.730;11.566;2023-04-01T03:13:35;8.00;99.90
22145;DHT22;11238;48.730;11.566;2023-04-01T03:16:02;8.10;99.90
22145;DHT22;11238;48.730;11.566;2023-04-01T03:18:30;8.10;99.90
22145;DHT22;11238;48.730;11.566;2023-04-01T03:20:56;8.10;99.90
22145;DHT22;11238;48.730;11.566;2023-04-01T03:23:22;8.00;99.90
22145;DHT22;11238;48.730;11.566;2023-04-01T03:25:50;8.00;99.90
22145;DHT22;11238;48.730;11.566;2023-04-01T03:28:16;8.00;99.90
22145;DHT22;11238;48.730;11.566;2023-04-01T03:30:43;8.00;99.90
22145;DHT22;11238;48.730;11.566;2023-04-01T03:33:08;7.90;99.90
22145;DHT22;11238;48.730;11.566;2023-04-01T03:35:35;7.90;99.90
22145;DHT22;11238;48.730;11.566;2023-04-01T03:38:02;7.90;99.90
22145;DHT22;11238;48.730;11.566;2023-04-01T03:40:29;7.90;99.90
22145;DHT22;11238;48.730;11.566;2023-04-01T03:42:55;7.90;99.90
22145;DHT22;11238;48.730;11.566;2023-04-01T03:45:21;7.90;99.90
22145;DHT22;11238;48.730;11.566;2023-04-01T03:47:47;7.80;99.90
22145;DHT22;11238;48.730;11.566;2023-04-01T03:50:13;7.90;99.90
22145;DHT22;11238;48.730;11.566;2023-04-01T03:52:39;7.80;99.90
22145;DHT22;11238;48.730;11.566;2023-04-01T03:55:05;7.80;99.90
22145;DHT22;11238;48.730;11.566;2023-04-01T03:57:31;7.80;99.90
22145;DHT22;11238;48.730;11.566;2023-04-01T04:00:03;7.80;99.90
22145;DHT22;11238;48.730;11.566;2023-04-01T04:02:39;7.90;99.90
22145;DHT22;11238;48.730;11.566;2023-04-01T04:05:06;7.90;99.90
22145;DHT22;11238;48.730;11.566;2023-04-01T04:07:34;7.90;99.90
22145;DHT22;11238;48.730;11.566;2023-04-01T04:10:05;8.00;99.90
22145;DHT22;11238;48.730;11.566;2023-04-01T04:12:31;7.90;99.90
22145;DHT22;11238;48.730;11.566;2023-04-01T04:14:57;7.90;99.90
22145;DHT22;11238;48.730;11.566;2023-04-01T04:17:23;7.90;99.90
22145;DHT22;11238;48.730;11.566;2023-04-01T04:19:50;7.90;99.90
22145;DHT22;11238;48.730;11.566;2023-04-01T04:22:16;7.80;99.90
22145;DHT22;11238;48.730;11.566;2023-04-01T04:24:43;7.90;99.90
22145;DHT22;11238;48.730;11.566;2023-04-01T04:27:11;7.80;99.90
22145;DHT22;11238;48.730;11.566;2023-04-01T04:29:47;7.80;99.90
22145;DHT22;11238;48.730;11.566;2023-04-01T04:32:13;7.80;99.90
22145;DHT22;11238;48.730;11.566;2023-04-01T04:34:39;7.70;99.90
22145;DHT22;11238;48.730;11.566;2023-04-01T04:37:05;7.70;99.90
22145;DHT22;11238;48.730;11.566;2023-04-01T04:39:34;7.70;99.90
22145;DHT22;11238;48.730;11.566;2023-04-01T04:42:00;7.70;99.90
22145;DHT22;11238;48.730;11.566;2023-04-01T04:44:26;7.70;99.90
22145;DHT22;11238;48.730;11.566;2023-04-01T04:46:52;7.70;99.90
22145;DHT22;11238;48.730;11.566;2023-04-01T04:49:18;7.60;99.90
22145;DHT22;11238;48.730;11.566;2023-04-01T04:51:44;7.70;99.90
22145;DHT22;11238;48.730;11.566;2023-04-01T04:54:12;7.70;99.90
22145;DHT22;11238;48.730;11.566;2023-04-01T04:56:47;7.60;99.90
22145;DHT22;11238;48.730;11.566;2023-04-01T04:59:13;7.70;99.90
22145;DHT22;11238;48.730;11.566;2023-04-01T05:01:46;7.60;99.90
22145;DHT22;11238;48.730;11.566;2023-04-01T05:04:13;7.60;99.90
22145;DHT22;11238;48.730;11.566;2023-04-01T05:06:39;7.70;99.90
22145;DHT22;11238;48.730;11.566;2023-04-01T05:09:05;7.60;99.90
22145;DHT22;11238;48.730;11.566;2023-04-01T05:11:31;7.70;99.90
22145;DHT22;11238;48.730;11.566;2023-04-01T05:13:56;7.70;99.90
22145;DHT22;11238;48.730;11.566;2023-04-01T05:16:23;7.70;99.90
22145;DHT22;11238;48.730;11.566;2023-04-01T05:18:48;7.70;99.90
22145;DHT22;11238;48.730;11.566;2023-04-01T05:21:15;7.70;99.90
22145;DHT22;11238;48.730;11.566;2023-04-01T05:23:42;7.80;99.90
22145;DHT22;11238;48.730;11.566;2023-04-01T05:26:12;7.80;99.90
22145;DHT22;11238;48.730;11.566;2023-04-01T05:28:39;7.80;99.90
22145;DHT22;11238;48.730;11.566;2023-04-01T05:31:06;7.90;99.90
22145;DHT22;11238;48.730;11.566;2023-04-01T05:33:35;7.90;99.90
22145;DHT22;11238;48.730;11.566;2023-04-01T05:36:14;8.00;99.90
22145;DHT22;11238;48.730;11.566;2023-04-01T05:38:41;8.00;99.90
22145;DHT22;11238;48.730;11.566;2023-04-01T05:41:09;8.00;99.90
22145;DHT22;11238;48.730;11.566;2023-04-01T05:43:40;8.00;99.90
22145;DHT22;11238;48.730;11.566;2023-04-01T05:46:24;8.00;99.90
22145;DHT22;11238;48.730;11.566;2023-04-01T05:49:03;8.00;99.90
22145;DHT22;11238;48.730;11.566;2023-04-01T05:51:29;8.00;99.90
22145;DHT22;11238;48.730;11.566;2023-04-01T05:53:55;8.10;99.90
22145;DHT22;11238;48.730;11.566;2023-04-01T05:56:21;8.10;99.90
22145;DHT22;11238;48.730;11.566;2023-04-01T05:58:51;8.10;99.90
22145;DHT22;11238;48.730;11.566;2023-04-01T06:01:20;8.10;99.90
22145;DHT22;11238;48.730;11.566;2023-04-01T06:03:47;8.00;99.90
22145;DHT22;11238;48.730;11.566;2023-04-01T06:06:31;8.00;99.90
22145;DHT22;11238;48.730;11.566;2023-04-01T06:09:19;8.10;99.90
22145;DHT22;11238;48.730;11.566;2023-04-01T06:12:19;8.10;99.90
22145;DHT22;11238;48.730;11.566;2023-04-01T06:23:01;8.30;99.90
22145;DHT22;11238;48.730;11.566;2023-04-01T06:38:00;8.60;99.90
22145;DHT22;11238;48.730;11.566;2023-04-01T06:41:05;8.70;99.90
22145;DHT22;11238;48.730;11.566;2023-04-01T06:49:41;8.70;99.90
22145;DHT22;11238;48.730;11.566;2023-04-01T06:58:31;9.00;99.90
22145;DHT22;11238;48.730;11.566;2023-04-01T07:01:03;9.00;99.90
22145;DHT22;11238;48.730;11.566;2023-04-01T07:06:06;8.90;99.90
22145;DHT22;11238;48.730;11.566;2023-04-01T07:08:41;8.90;99.90
22145;DHT22;11238;48.730;11.566;2023-04-01T07:11:36;8.90;99.90
22145;DHT22;11238;48.730;11.566;2023-04-01T07:14:37;9.00;99.90
22145;DHT22;11238;48.730;11.566;2023-04-01T07:17:11;9.00;99.90
22145;DHT22;11238;48.730;11.566;2023-04-01T07:20:05;9.10;99.90
22145;DHT22;11238;48.730;11.566;2023-04-01T07:22:35;9.10;99.90
22145;DHT22;11238;48.730;11.566;2023-04-01T07:27:45;9.20;99.90
22145;DHT22;11238;48.730;11.566;2023-04-01T07:30:16;9.30;99.90
22145;DHT22;11238;48.730;11.566;2023-04-01T07:32:47;9.30;99.90
22145;DHT22;11238;48.730;11.566;2023-04-01T07:35:38;9.40;99.90
22145;DHT22;11238;48.730;11.566;2023-04-01T07:54:35;9.90;99.90
22145;DHT22;11238;48.730;11.566;2023-04-01T08:09:43;10.40;99.90
22145;DHT22;11238;48.730;11.566;2023-04-01T08:12:57;10.50;99.90
22145;DHT22;11238;48.730;11.566;2023-04-01T08:15:47;10.60;99.90
22145;DHT22;11238;48.730;11.566;2023-04-01T08:18:46;10.50;99.90
22145;DHT22;11238;48.730;11.566;2023-04-01T08:23:52;10.70;99.90
22145;DHT22;11238;48.730;11.566;2023-04-01T08:26:37;10.70;99.90
22145;DHT22;11238;48.730;11.566;2023-04-01T08:29:37;10.70;99.90
22145;DHT22;11238;48.730;11.566;2023-04-01T08:32:12;10.80;99.90
22145;DHT22;11238;48.730;11.566;2023-04-01T08:34:45;10.60;99.90
22145;DHT22;11238;48.730;11.566;2023-04-01T08:37:30;10.50;99.90
22145;DHT22;11238;48.730;11.566;2023-04-01T08:40:20;10.50;99.90
22145;DHT22;11238;48.730;11.566;2023-04-01T08:45:53;10.40;99.90
22145;DHT22;11238;48.730;11.566;2023-04-01T08:48:47;10.40;99.90
22145;DHT22;11238;48.730;11.566;2023-04-01T08:54:59;10.50;99.90
22145;DHT22;11238;48.730;11.566;2023-04-01T08:57:56;10.60;99.90
22145;DHT22;11238;48.730;11.566;2023-04-01T09:00:54;10.70;99.90
22145;DHT22;11238;48.730;11.566;2023-04-01T09:06:31;10.80;99.90
22145;DHT22;11238;48.730;11.566;2023-04-01T09:20:34;10.60;99.90
22145;DHT22;11238;48.730;11.566;2023-04-01T09:34:52;10.50;99.90
22145;DHT22;11238;48.730;11.566;2023-04-01T09:37:29;10.60;99.90
22145;DHT22;11238;48.730;11.566;2023-04-01T09:45:55;10.60;99.90
22145;DHT22;11238;48.730;11.566;2023-04-01T09:56:26;10.80;99.90
22145;DHT22;11238;48.730;11.566;2023-04-01T10:02:19;10.90;99.90
22145;DHT22;11238;48.730;11.566;2023-04-01T10:08:07;10.90;99.90
22145;DHT22;11238;48.730;11.566;2023-04-01T10:10:46;10.80;99.90
22145;DHT22;11238;48.730;11.566;2023-04-01T10:27:48;10.70;99.90
22145;DHT22;11238;48.730;11.566;2023-04-01T11:08:21;10.10;99.90
22145;DHT22;11238;48.730;11.566;2023-04-01T11:21:49;9.70;99.90
22145;DHT22;11238;48.730;11.566;2023-04-01T11:41:40;9.40;99.90
22145;DHT22;11238;48.730;11.566;2023-04-01T11:44:39;9.40;99.90
22145;DHT22;11238;48.730;11.566;2023-04-01T11:47:30;9.40;99.90
22145;DHT22;11238;48.730;11.566;2023-04-01T11:50:15;9.40;99.90
22145;DHT22;11238;48.730;11.566;2023-04-01T12:13:25;9.10;99.90
22145;DHT22;11238;48.730;11.566;2023-04-01T12:22:12;9.00;99.90
22145;DHT22;11238;48.730;11.566;2023-04-01T12:27:38;8.90;99.90
22145;DHT22;11238;48.730;11.566;2023-04-01T12:33:18;9.00;99.90
22145;DHT22;11238;48.730;11.566;2023-04-01T12:36:30;9.00;99.90
22145;DHT22;11238;48.730;11.566;2023-04-01T12:41:54;9.10;99.90
22145;DHT22;11238;48.730;11.566;2023-04-01T12:44:39;9.00;99.90
22145;DHT22;11238;48.730;11.566;2023-04-01T12:52:43;9.10;99.90
22145;DHT22;11238;48.730;11.566;2023-04-01T12:55:20;9.10;99.90
22145;DHT22;11238;48.730;11.566;2023-04-01T13:18:23;9.30;99.90
22145;DHT22;11238;48.730;11.566;2023-04-01T13:21:05;9.40;99.90
22145;DHT22;11238;48.730;11.566;2023-04-01T13:23:37;9.40;99.90
22145;DHT22;11238;48.730;11.566;2023-04-01T13:26:37;9.50;99.90
22145;DHT22;11238;48.730;11.566;2023-04-01T13:29:14;9.50;99.90
22145;DHT22;11238;48.730;11.566;2023-04-01T13:48:23;9.40;99.90
22145;DHT22;11238;48.730;11.566;2023-04-01T13:56:32;9.30;99.90
22145;DHT22;11238;48.730;11.566;2023-04-01T13:59:17;9.30;99.90
22145;DHT22;11238;48.730;11.566;2023-04-01T14:07:56;9.20;99.90
22145;DHT22;11238;48.730;11.566;2023-04-01T14:24:32;9.30;99.90
22145;DHT22;11238;48.730;11.566;2023-04-01T14:27:17;9.30;99.90
22145;DHT22;11238;48.730;11.566;2023-04-01T14:38:27;9.50;99.90
22145;DHT22;11238;48.730;11.566;2023-04-01T14:41:00;9.60;99.90
22145;DHT22;11238;48.730;11.566;2023-04-01T14:49:37;9.80;99.90
22145;DHT22;11238;48.730;11.566;2023-04-01T14:52:57;9.90;99.90
22145;DHT22;11238;48.730;11.566;2023-04-01T14:56:08;9.90;99.90
22145;DHT22;11238;48.730;11.566;2023-04-01T14:58:13;9.90;99.90
22145;DHT22;11238;48.730;11.566;2023-04-01T15:00:56;9.90;99.90
22145;DHT22;11238;48.730;11.566;2023-04-01T15:03:32;9.90;99.90
22145;DHT22;11238;48.730;11.566;2023-04-01T15:07:00;9.90;99.90
22145;DHT22;11238;48.730;11.566;2023-04-01T15:18:07;10.00;99.90
22145;DHT22;11238;48.730;11.566;2023-04-01T15:26:37;9.90;99.90
22145;DHT22;11238;48.730;11.566;2023-04-01T15:29:41;9.90;99.90
22145;DHT22;11238;48.730;11.566;2023-04-01T15:37:57;10.00;99.90
22145;DHT22;11238;48.730;11.566;2023-04-01T15:40:53;10.00;99.90
22145;DHT22;11238;48.730;11.566;2023-04-01T15:43:35;10.10;99.90
22145;DHT22;11238;48.730;11.566;2023-04-01T15:46:26;10.00;99.90
22145;DHT22;11238;48.730;11.566;2023-04-01T16:02:07;9.90;99.90
22145;DHT22;11238;48.730;11.566;2023-04-01T16:04:48;9.90;99.90
22145;DHT22;11238;48.730;11.566;2023-04-01T16:22:07;9.80;99.90
22145;DHT22;11238;48.730;11.566;2023-04-01T16:27:44;9.90;99.90
22145;DHT22;11238;48.730;11.566;2023-04-01T16:30:37;9.90;99.90
22145;DHT22;11238;48.730;11.566;2023-04-01T16:33:22;9.80;99.90
22145;DHT22;11238;48.730;11.566;2023-04-01T16:36:13;9.80;99.90
22145;DHT22;11238;48.730;11.566;2023-04-01T16:38:58;9.80;99.90
22145;DHT22;11238;48.730;11.566;2023-04-01T16:41:31;9.80;99.90
22145;DHT22;11238;48.730;11.566;2023-04-01T16:47:10;9.70;99.90
22145;DHT22;11238;48.730;11.566;2023-04-01T16:49:51;9.80;99.90
22145;DHT22;11238;48.730;11.566;2023-04-01T16:52:43;9.70;99.90
22145;DHT22;11238;48.730;11.566;2023-04-01T16:55:18;9.70;99.90
22145;DHT22;11238;48.730;11.566;2023-04-01T16:57:50;9.70;99.90
22145;DHT22;11238;48.730;11.566;2023-04-01T17:00:26;9.70;99.90
22145;DHT22;11238;48.730;11.566;2023-04-01T17:06:12;9.70;99.90
22145;DHT22;11238;48.730;11.566;2023-04-01T17:09:20;9.70;99.90
22145;DHT22;11238;48.730;11.566;2023-04-01T17:11:57;9.80;99.90
22145;DHT22;11238;48.730;11.566;2023-04-01T17:14:31;9.70;99.90
22145;DHT22;11238;48.730;11.566;2023-04-01T17:20:31;9.60;99.90
22145;DHT22;11238;48.730;11.566;2023-04-01T17:23:36;9.50;99.90
22145;DHT22;11238;48.730;11.566;2023-04-01T17:28:41;9.40;99.90
22145;DHT22;11238;48.730;11.566;2023-04-01T17:31:41;9.40;99.90
22145;DHT22;11238;48.730;11.566;2023-04-01T17:45:57;9.20;99.90
22145;DHT22;11238;48.730;11.566;2023-04-01T17:56:53;9.20;99.90
22145;DHT22;11238;48.730;11.566;2023-04-01T17:59:35;9.20;99.90
22145;DHT22;11238;48.730;11.566;2023-04-01T18:02:42;9.30;99.90
22145;DHT22;11238;48.730;11.566;2023-04-01T18:11:09;9.20;99.90
22145;DHT22;11238;48.730;11.566;2023-04-01T18:13:41;9.30;99.90
22145;DHT22;11238;48.730;11.566;2023-04-01T18:22:28;9.20;99.90
22145;DHT22;11238;48.730;11.566;2023-04-01T18:25:52;9.30;99.90
22145;DHT22;11238;48.730;11.566;2023-04-01T18:39:16;9.10;99.90
22145;DHT22;11238;48.730;11.566;2023-04-01T18:45:36;9.10;99.90
22145;DHT22;11238;48.730;11.566;2023-04-01T18:48:30;9.10;99.90
22145;DHT22;11238;48.730;11.566;2023-04-01T18:51:12;9.10;99.90
22145;DHT22;11238;48.730;11.566;2023-04-01T18:53:57;9.10;99.90
22145;DHT22;11238;48.730;11.566;2023-04-01T18:56:46;9.10;99.90
22145;DHT22;11238;48.730;11.566;2023-04-01T19:05:29;9.10;99.90
22145;DHT22;11238;48.730;11.566;2023-04-01T19:07:58;9.10;99.90
22145;DHT22;11238;48.730;11.566;2023-04-01T19:10:54;9.10;99.90
22145;DHT22;11238;48.730;11.566;2023-04-01T19:14:00;9.10;99.90
22145;DHT22;11238;48.730;11.566;2023-04-01T19:16:49;9.10;99.90
22145;DHT22;11238;48.730;11.566;2023-04-01T19:27:50;9.00;99.90
22145;DHT22;11238;48.730;11.566;2023-04-01T19:33:41;9.00;99.90
22145;DHT22;11238;48.730;11.566;2023-04-01T19:36:39;9.00;99.90
22145;DHT22;11238;48.730;11.566;2023-04-01T19:39:45;9.00;99.90
22145;DHT22;11238;48.730;11.566;2023-04-01T19:42:33;9.00;99.90
22145;DHT22;11238;48.730;11.566;2023-04-01T19:45:43;9.00;99.90
22145;DHT22;11238;48.730;11.566;2023-04-01T19:51:31;9.00;99.90
22145;DHT22;11238;48.730;11.566;2023-04-01T19:54:16;9.00;99.90
22145;DHT22;11238;48.730;11.566;2023-04-01T19:57:05;9.00;99.90
22145;DHT22;11238;48.730;11.566;2023-04-01T20:05:35;9.10;99.90
22145;DHT22;11238;48.730;11.566;2023-04-01T20:08:13;9.10;99.90
22145;DHT22;11238;48.730;11.566;2023-04-01T20:13:42;9.00;99.90
22145;DHT22;11238;48.730;11.566;2023-04-01T20:16:12;9.00;99.90
22145;DHT22;11238;48.730;11.566;2023-04-01T20:18:56;9.00;99.90
22145;DHT22;11238;48.730;11.566;2023-04-01T20:21:46;9.00;99.90
22145;DHT22;11238;48.730;11.566;2023-04-01T20:26:42;9.00;99.90
22145;DHT22;11238;48.730;11.566;2023-04-01T20:31:59;9.00;99.90
22145;DHT22;11238;48.730;11.566;2023-04-01T20:45:25;9.00;99.90
22145;DHT22;11238;48.730;11.566;2023-04-01T20:50:57;9.00;99.90
22145;DHT22;11238;48.730;11.566;2023-04-01T20:56:17;9.00;99.90
22145;DHT22;11238;48.730;11.566;2023-04-01T20:59:23;9.00;99.90
22145;DHT22;11238;48.730;11.566;2023-04-01T21:05:04;9.00;99.90
22145;DHT22;11238;48.730;11.566;2023-04-01T21:07:41;9.00;99.90
22145;DHT22;11238;48.730;11.566;2023-04-01T21:16:36;9.00;99.90
22145;DHT22;11238;48.730;11.566;2023-04-01T21:21:46;9.00;99.90
22145;DHT22;11238;48.730;11.566;2023-04-01T21:24:43;9.00;99.90
22145;DHT22;11238;48.730;11.566;2023-04-01T21:27:13;8.90;99.90
22145;DHT22;11238;48.730;11.566;2023-04-01T21:32:50;9.00;99.90
22145;DHT22;11238;48.730;11.566;2023-04-01T21:35:47;8.90;99.90
22145;DHT22;11238;48.730;11.566;2023-04-01T21:38:40;9.00;99.90
22145;DHT22;11238;48.730;11.566;2023-04-01T21:41:40;8.90;99.90
22145;DHT22;11238;48.730;11.566;2023-04-01T21:47:25;8.90;99.90
22145;DHT22;11238;48.730;11.566;2023-04-01T22:01:31;8.80;99.90
22145;DHT22;11238;48.730;11.566;2023-04-01T22:07:51;8.80;99.90
22145;DHT22;11238;48.730;11.566;2023-04-01T22:18:24;8.70;99.90
22145;DHT22;11238;48.730;11.566;2023-04-01T22:26:13;8.60;99.90
22145;DHT22;11238;48.730;11.566;2023-04-01T22:29:03;8.50;99.90
22145;DHT22;11238;48.730;11.566;2023-04-01T22:31:49;8.50;99.90
22145;DHT22;11238;48.730;11.566;2023-04-01T22:42:25;8.40;99.90
22145;DHT22;11238;48.730;11.566;2023-04-01T22:50:26;8.40;99.90
22145;DHT22;11238;48.730;11.566;2023-04-01T22:55:40;8.40;99.90
22145;DHT22;11238;48.730;11.566;2023-04-01T22:58:15;8.40;99.90
22145;DHT22;11238;48.730;11.566;2023-04-01T23:00:49;8.40;99.90
22145;DHT22;11238;48.730;11.566;2023-04-01T23:03:35;8.40;99.90
22145;DHT22;11238;48.730;11.566;2023-04-01T23:06:04;8.40;99.90
22145;DHT22;11238;48.730;11.566;2023-04-01T23:11:56;8.40;99.90
22145;DHT22;11238;48.730;11.566;2023-04-01T23:17:22;8.50;99.90
22145;DHT22;11238;48.730;11.566;2023-04-01T23:22:59;8.40;99.90
22145;DHT22;11238;48.730;11.566;2023-04-01T23:33:30;8.30;99.90
22145;DHT22;11238;48.730;11.566;2023-04-01T23:35:59;8.30;99.90
22145;DHT22;11238;48.730;11.566;2023-04-01T23:38:35;8.30;99.90
22145;DHT22;11238;48.730;11.566;2023-04-01T23:41:02;8.30;99.90
22145;DHT22;11238;48.730;11.566;2023-04-01T23:43:39;8.30;99.90
22145;DHT22;11238;48.730;11.566;2023-04-01T23:46:07;8.30;99.90
22145;DHT22;11238;48.730;11.566;2023-04-01T23:48:40;8.30;99.90
22145;DHT22;11238;48.730;11.566;2023-04-01T23:51:22;8.30;99.90
22145;DHT22;11238;48.730;11.566;2023-04-01T23:54:03;8.30;99.90
22145;DHT22;11238;48.730;11.566;2023-04-01T23:56:53;8.20;99.90
22145;DHT22;11238;48.730;11.566;2023-04-01T23:59:28;8.20;99.90
